sensor_id;sensor_type;location;lat;lon;timestamp;P1;durP1;ratioP1;P2;durP2;ratioP2
13122;SDS011;6627;50.920;12.050;2023-01-15T00:01:20;0.60;;;0.60;;
13122;SDS011;6627;50.920;12.050;2023-01-15T00:03:51;0.80;;;0.60;;
13122;SDS011;6627;50.920;12.050;2023-01-15T00:06:20;0.77;;;0.60;;
13122;SDS011;6627;50.920;12.050;2023-01-15T00:08:49;0.50;;;0.50;;
13122;SDS011;6627;50.920;12.050;2023-01-15T00:11:17;1.17;;;0.80;;
13122;SDS011;6627;50.920;12.050;2023-01-15T00:13:46;0.60;;;0.60;;
13122;SDS011;6627;50.920;12.050;2023-01-15T00:16:16;1.70;;;0.70;;
13122;SDS011;6627;50.920;12.050;2023-01-15T00:18:48;1.13;;;0.70;;
13122;SDS011;6627;50.920;12.050;2023-01-15T00:21:17;0.60;;;0.60;;
13122;SDS011;6627;50.920;12.050;2023-01-15T00:23:45;0.50;;;0.50;;
13122;SDS011;6627;50.920;12.050;2023-01-15T00:26:31;1.17;;;0.70;;
13122;SDS011;6627;50.920;12.050;2023-01-15T00:29:18;2.30;;;0.80;;
13122;SDS011;6627;50.920;12.050;2023-01-15T00:31:51;0.60;;;0.60;;
13122;SDS011;6627;50.920;12.050;2023-01-15T00:34:22;0.60;;;0.60;;
13122;SDS011;6627;50.920;12.050;2023-01-15T00:36:50;0.93;;;0.60;;
13122;SDS011;6627;50.920;12.050;2023-01-15T00:39:18;0.70;;;0.70;;
13122;SDS011;6627;50.920;12.050;2023-01-15T00:41:48;1.03;;;0.70;;
13122;SDS011;6627;50.920;12.050;2023-01-15T00:44:17;2.03;;;0.70;;
13122;SDS011;6627;50.920;12.050;2023-01-15T00:46:46;1.33;;;0.80;;
13122;SDS011;6627;50.920;12.050;2023-01-15T00:49:14;0.70;;;0.70;;
13122;SDS011;6627;50.920;12.050;2023-01-15T00:51:41;1.37;;;0.80;;
13122;SDS011;6627;50.920;12.050;2023-01-15T00:54:09;1.60;;;0.90;;
13122;SDS011;6627;50.920;12.050;2023-01-15T00:56:37;0.70;;;0.70;;
13122;SDS011;6627;50.920;12.050;2023-01-15T00:59:05;0.80;;;0.60;;
13122;SDS011;6627;50.920;12.050;2023-01-15T01:01:33;1.00;;;0.90;;
13122;SDS011;6627;50.920;12.050;2023-01-15T01:04:01;1.73;;;0.80;;
13122;SDS011;6627;50.920;12.050;2023-01-15T01:06:29;1.37;;;0.87;;
13122;SDS011;6627;50.920;12.050;2023-01-15T01:08:56;1.13;;;0.90;;
13122;SDS011;6627;50.920;12.050;2023-01-15T01:11:24;0.83;;;0.80;;
13122;SDS011;6627;50.920;12.050;2023-01-15T01:13:53;0.60;;;0.60;;
13122;SDS011;6627;50.920;12.050;2023-01-15T01:16:24;0.80;;;0.80;;
13122;SDS011;6627;50.920;12.050;2023-01-15T01:18:59;0.90;;;0.60;;
13122;SDS011;6627;50.920;12.050;2023-01-15T01:21:29;0.90;;;0.70;;
13122;SDS011;6627;50.920;12.050;2023-01-15T01:23:57;0.80;;;0.80;;
13122;SDS011;6627;50.920;12.050;2023-01-15T01:26:26;0.73;;;0.73;;
13122;SDS011;6627;50.920;12.050;2023-01-15T01:28:55;0.67;;;0.60;;
13122;SDS011;6627;50.920;12.050;2023-01-15T01:31:23;0.60;;;0.60;;
13122;SDS011;6627;50.920;12.050;2023-01-15T01:33:51;0.67;;;0.67;;
13122;SDS011;6627;50.920;12.050;2023-01-15T01:36:26;0.60;;;0.60;;
13122;SDS011;6627;50.920;12.050;2023-01-15T01:38:56;0.50;;;0.50;;
13122;SDS011;6627;50.920;12.050;2023-01-15T01:41:24;0.70;;;0.60;;
13122;SDS011;6627;50.920;12.050;2023-01-15T01:43:53;0.83;;;0.60;;
13122;SDS011;6627;50.920;12.050;2023-01-15T01:46:25;0.57;;;0.57;;
13122;SDS011;6627;50.920;12.050;2023-01-15T01:48:55;0.50;;;0.50;;
13122;SDS011;6627;50.920;12.050;2023-01-15T01:51:29;0.77;;;0.60;;
13122;SDS011;6627;50.920;12.050;2023-01-15T01:54:04;0.47;;;0.47;;
13122;SDS011;6627;50.920;12.050;2023-01-15T01:56:35;0.50;;;0.50;;
13122;SDS011;6627;50.920;12.050;2023-01-15T01:59:03;0.40;;;0.40;;
13122;SDS011;6627;50.920;12.050;2023-01-15T02:01:34;0.60;;;0.60;;
13122;SDS011;6627;50.920;12.050;2023-01-15T02:04:01;0.60;;;0.60;;
13122;SDS011;6627;50.920;12.050;2023-01-15T02:06:34;0.73;;;0.70;;
13122;SDS011;6627;50.920;12.050;2023-01-15T02:09:03;0.50;;;0.50;;
13122;SDS011;6627;50.920;12.050;2023-01-15T02:11:31;0.73;;;0.60;;
13122;SDS011;6627;50.920;12.050;2023-01-15T02:14:01;0.63;;;0.60;;
13122;SDS011;6627;50.920;12.050;2023-01-15T02:16:41;0.90;;;0.60;;
13122;SDS011;6627;50.920;12.050;2023-01-15T02:19:16;0.67;;;0.53;;
13122;SDS011;6627;50.920;12.050;2023-01-15T02:22:03;0.90;;;0.50;;
13122;SDS011;6627;50.920;12.050;2023-01-15T02:24:43;1.53;;;0.80;;
13122;SDS011;6627;50.920;12.050;2023-01-15T02:27:28;0.80;;;0.80;;
13122;SDS011;6627;50.920;12.050;2023-01-15T02:29:56;1.00;;;0.57;;
13122;SDS011;6627;50.920;12.050;2023-01-15T02:32:32;1.07;;;0.50;;
13122;SDS011;6627;50.920;12.050;2023-01-15T02:35:07;1.23;;;0.67;;
13122;SDS011;6627;50.920;12.050;2023-01-15T02:37:51;0.47;;;0.47;;
13122;SDS011;6627;50.920;12.050;2023-01-15T02:40:24;0.50;;;0.50;;
13122;SDS011;6627;50.920;12.050;2023-01-15T02:42:56;0.57;;;0.57;;
13122;SDS011;6627;50.920;12.050;2023-01-15T02:45:26;0.60;;;0.60;;
13122;SDS011;6627;50.920;12.050;2023-01-15T02:47:57;0.70;;;0.70;;
13122;SDS011;6627;50.920;12.050;2023-01-15T02:50:34;3.30;;;0.70;;
13122;SDS011;6627;50.920;12.050;2023-01-15T02:53:08;0.80;;;0.60;;
13122;SDS011;6627;50.920;12.050;2023-01-15T02:55:45;0.80;;;0.73;;
13122;SDS011;6627;50.920;12.050;2023-01-15T02:58:18;0.80;;;0.57;;
13122;SDS011;6627;50.920;12.050;2023-01-15T03:00:52;1.03;;;0.77;;
13122;SDS011;6627;50.920;12.050;2023-01-15T03:03:25;0.60;;;0.60;;
13122;SDS011;6627;50.920;12.050;2023-01-15T03:06:13;0.50;;;0.50;;
13122;SDS011;6627;50.920;12.050;2023-01-15T03:08:45;0.90;;;0.77;;
13122;SDS011;6627;50.920;12.050;2023-01-15T03:11:13;1.03;;;0.67;;
13122;SDS011;6627;50.920;12.050;2023-01-15T03:13:46;0.60;;;0.60;;
13122;SDS011;6627;50.920;12.050;2023-01-15T03:16:24;0.90;;;0.83;;
13122;SDS011;6627;50.920;12.050;2023-01-15T03:19:08;1.17;;;0.67;;
13122;SDS011;6627;50.920;12.050;2023-01-15T03:21:49;0.90;;;0.60;;
13122;SDS011;6627;50.920;12.050;2023-01-15T03:24:23;0.60;;;0.60;;
13122;SDS011;6627;50.920;12.050;2023-01-15T03:26:58;1.10;;;0.57;;
13122;SDS011;6627;50.920;12.050;2023-01-15T03:29:29;1.17;;;0.60;;
13122;SDS011;6627;50.920;12.050;2023-01-15T03:32:02;0.77;;;0.77;;
13122;SDS011;6627;50.920;12.050;2023-01-15T03:34:32;0.83;;;0.57;;
13122;SDS011;6627;50.920;12.050;2023-01-15T03:37:06;0.90;;;0.80;;
13122;SDS011;6627;50.920;12.050;2023-01-15T03:39:34;0.50;;;0.50;;
13122;SDS011;6627;50.920;12.050;2023-01-15T03:42:06;0.30;;;0.30;;
13122;SDS011;6627;50.920;12.050;2023-01-15T03:44:48;0.60;;;0.60;;
13122;SDS011;6627;50.920;12.050;2023-01-15T03:47:28;0.47;;;0.47;;
13122;SDS011;6627;50.920;12.050;2023-01-15T03:50:13;0.50;;;0.50;;
13122;SDS011;6627;50.920;12.050;2023-01-15T03:52:53;1.60;;;0.50;;
13122;SDS011;6627;50.920;12.050;2023-01-15T03:55:35;0.67;;;0.47;;
13122;SDS011;6627;50.920;12.050;2023-01-15T03:58:12;0.40;;;0.40;;
13122;SDS011;6627;50.920;12.050;2023-01-15T04:00:47;0.30;;;0.30;;
13122;SDS011;6627;50.920;12.050;2023-01-15T04:03:19;0.50;;;0.50;;
13122;SDS011;6627;50.920;12.050;2023-01-15T04:05:49;0.80;;;0.50;;
13122;SDS011;6627;50.920;12.050;2023-01-15T04:08:20;0.70;;;0.60;;
13122;SDS011;6627;50.920;12.050;2023-01-15T04:10:51;0.47;;;0.43;;
13122;SDS011;6627;50.920;12.050;2023-01-15T04:13:20;1.90;;;0.70;;
13122;SDS011;6627;50.920;12.050;2023-01-15T04:15:49;0.83;;;0.40;;
13122;SDS011;6627;50.920;12.050;2023-01-15T04:18:18;1.07;;;0.53;;
13122;SDS011;6627;50.920;12.050;2023-01-15T04:20:46;2.07;;;0.60;;
13122;SDS011;6627;50.920;12.050;2023-01-15T04:23:14;0.80;;;0.40;;
13122;SDS011;6627;50.920;12.050;2023-01-15T04:25:41;1.27;;;0.50;;
13122;SDS011;6627;50.920;12.050;2023-01-15T04:28:08;0.70;;;0.50;;
13122;SDS011;6627;50.920;12.050;2023-01-15T04:30:37;0.30;;;0.30;;
13122;SDS011;6627;50.920;12.050;2023-01-15T04:33:08;0.40;;;0.30;;
13122;SDS011;6627;50.920;12.050;2023-01-15T04:35:36;0.30;;;0.30;;
13122;SDS011;6627;50.920;12.050;2023-01-15T04:38:05;0.20;;;0.20;;
13122;SDS011;6627;50.920;12.050;2023-01-15T04:40:32;0.27;;;0.20;;
13122;SDS011;6627;50.920;12.050;2023-01-15T04:43:17;0.40;;;0.20;;
13122;SDS011;6627;50.920;12.050;2023-01-15T04:46:01;0.50;;;0.40;;
13122;SDS011;6627;50.920;12.050;2023-01-15T04:48:30;0.40;;;0.20;;
13122;SDS011;6627;50.920;12.050;2023-01-15T04:51:00;0.30;;;0.30;;
13122;SDS011;6627;50.920;12.050;2023-01-15T04:53:28;0.37;;;0.23;;
13122;SDS011;6627;50.920;12.050;2023-01-15T04:55:58;0.73;;;0.30;;
13122;SDS011;6627;50.920;12.050;2023-01-15T04:58:26;0.40;;;0.40;;
13122;SDS011;6627;50.920;12.050;2023-01-15T05:00:54;0.40;;;0.40;;
13122;SDS011;6627;50.920;12.050;2023-01-15T05:03:21;0.37;;;0.37;;
13122;SDS011;6627;50.920;12.050;2023-01-15T05:05:49;0.40;;;0.40;;
13122;SDS011;6627;50.920;12.050;2023-01-15T05:08:17;0.30;;;0.30;;
13122;SDS011;6627;50.920;12.050;2023-01-15T05:10:45;1.13;;;0.40;;
13122;SDS011;6627;50.920;12.050;2023-01-15T05:13:12;0.67;;;0.40;;
13122;SDS011;6627;50.920;12.050;2023-01-15T05:15:39;0.30;;;0.30;;
13122;SDS011;6627;50.920;12.050;2023-01-15T05:18:07;0.30;;;0.30;;
13122;SDS011;6627;50.920;12.050;2023-01-15T05:20:39;0.30;;;0.30;;
13122;SDS011;6627;50.920;12.050;2023-01-15T05:23:08;1.13;;;0.53;;
13122;SDS011;6627;50.920;12.050;2023-01-15T05:25:35;2.27;;;0.40;;
13122;SDS011;6627;50.920;12.050;2023-01-15T05:28:02;0.30;;;0.30;;
13122;SDS011;6627;50.920;12.050;2023-01-15T05:30:30;0.30;;;0.30;;
13122;SDS011;6627;50.920;12.050;2023-01-15T05:32:57;0.40;;;0.40;;
13122;SDS011;6627;50.920;12.050;2023-01-15T05:35:24;0.40;;;0.40;;
13122;SDS011;6627;50.920;12.050;2023-01-15T05:37:51;1.83;;;0.60;;
13122;SDS011;6627;50.920;12.050;2023-01-15T05:40:20;0.40;;;0.37;;
13122;SDS011;6627;50.920;12.050;2023-01-15T05:42:47;0.30;;;0.30;;
13122;SDS011;6627;50.920;12.050;2023-01-15T05:45:14;1.13;;;0.60;;
13122;SDS011;6627;50.920;12.050;2023-01-15T05:47:41;0.40;;;0.30;;
13122;SDS011;6627;50.920;12.050;2023-01-15T05:50:09;0.30;;;0.30;;
13122;SDS011;6627;50.920;12.050;2023-01-15T05:52:36;0.30;;;0.30;;
13122;SDS011;6627;50.920;12.050;2023-01-15T05:55:04;0.53;;;0.50;;
13122;SDS011;6627;50.920;12.050;2023-01-15T05:57:33;0.40;;;0.40;;
13122;SDS011;6627;50.920;12.050;2023-01-15T06:00:00;0.30;;;0.30;;
13122;SDS011;6627;50.920;12.050;2023-01-15T06:02:29;0.30;;;0.30;;
13122;SDS011;6627;50.920;12.050;2023-01-15T06:04:56;0.40;;;0.40;;
13122;SDS011;6627;50.920;12.050;2023-01-15T06:07:24;0.40;;;0.40;;
13122;SDS011;6627;50.920;12.050;2023-01-15T06:09:51;0.40;;;0.40;;
13122;SDS011;6627;50.920;12.050;2023-01-15T06:12:19;0.40;;;0.40;;
13122;SDS011;6627;50.920;12.050;2023-01-15T06:14:47;0.40;;;0.40;;
13122;SDS011;6627;50.920;12.050;2023-01-15T06:17:14;1.43;;;0.40;;
13122;SDS011;6627;50.920;12.050;2023-01-15T06:19:41;3.47;;;0.40;;
13122;SDS011;6627;50.920;12.050;2023-01-15T06:22:08;0.67;;;0.50;;
13122;SDS011;6627;50.920;12.050;2023-01-15T06:24:35;0.57;;;0.30;;
13122;SDS011;6627;50.920;12.050;2023-01-15T06:27:03;0.40;;;0.40;;
13122;SDS011;6627;50.920;12.050;2023-01-15T06:29:30;2.63;;;0.40;;
13122;SDS011;6627;50.920;12.050;2023-01-15T06:31:59;0.33;;;0.30;;
13122;SDS011;6627;50.920;12.050;2023-01-15T06:34:26;0.30;;;0.30;;
13122;SDS011;6627;50.920;12.050;2023-01-15T06:36:53;0.40;;;0.40;;
13122;SDS011;6627;50.920;12.050;2023-01-15T06:39:20;0.30;;;0.30;;
13122;SDS011;6627;50.920;12.050;2023-01-15T06:41:47;0.30;;;0.30;;
13122;SDS011;6627;50.920;12.050;2023-01-15T06:44:32;0.40;;;0.40;;
13122;SDS011;6627;50.920;12.050;2023-01-15T06:47:18;0.50;;;0.40;;
13122;SDS011;6627;50.920;12.050;2023-01-15T06:49:47;0.40;;;0.40;;
13122;SDS011;6627;50.920;12.050;2023-01-15T06:52:15;0.43;;;0.40;;
13122;SDS011;6627;50.920;12.050;2023-01-15T06:54:51;1.33;;;0.50;;
13122;SDS011;6627;50.920;12.050;2023-01-15T06:57:19;0.50;;;0.50;;
13122;SDS011;6627;50.920;12.050;2023-01-15T06:59:47;1.50;;;0.40;;
13122;SDS011;6627;50.920;12.050;2023-01-15T07:02:15;0.60;;;0.50;;
13122;SDS011;6627;50.920;12.050;2023-01-15T07:04:44;0.40;;;0.40;;
13122;SDS011;6627;50.920;12.050;2023-01-15T07:07:12;0.30;;;0.30;;
13122;SDS011;6627;50.920;12.050;2023-01-15T07:09:39;0.50;;;0.50;;
13122;SDS011;6627;50.920;12.050;2023-01-15T07:12:07;0.53;;;0.53;;
13122;SDS011;6627;50.920;12.050;2023-01-15T07:14:34;0.63;;;0.53;;
13122;SDS011;6627;50.920;12.050;2023-01-15T07:17:01;0.70;;;0.40;;
13122;SDS011;6627;50.920;12.050;2023-01-15T07:19:30;0.50;;;0.50;;
13122;SDS011;6627;50.920;12.050;2023-01-15T07:21:57;0.50;;;0.50;;
13122;SDS011;6627;50.920;12.050;2023-01-15T07:24:24;0.50;;;0.50;;
13122;SDS011;6627;50.920;12.050;2023-01-15T07:26:51;0.50;;;0.50;;
13122;SDS011;6627;50.920;12.050;2023-01-15T07:29:18;0.50;;;0.50;;
13122;SDS011;6627;50.920;12.050;2023-01-15T07:31:45;0.50;;;0.50;;
13122;SDS011;6627;50.920;12.050;2023-01-15T07:34:12;1.07;;;0.60;;
13122;SDS011;6627;50.920;12.050;2023-01-15T07:36:41;0.50;;;0.50;;
13122;SDS011;6627;50.920;12.050;2023-01-15T07:39:09;0.60;;;0.60;;
13122;SDS011;6627;50.920;12.050;2023-01-15T07:41:37;0.50;;;0.50;;
13122;SDS011;6627;50.920;12.050;2023-01-15T07:44:22;1.07;;;0.50;;
13122;SDS011;6627;50.920;12.050;2023-01-15T07:47:09;2.03;;;0.60;;
13122;SDS011;6627;50.920;12.050;2023-01-15T07:50:01;1.50;;;0.60;;
13122;SDS011;6627;50.920;12.050;2023-01-15T07:52:31;1.03;;;0.80;;
13122;SDS011;6627;50.920;12.050;2023-01-15T07:54:59;5.70;;;4.57;;
13122;SDS011;6627;50.920;12.050;2023-01-15T07:57:26;3.40;;;3.07;;
13122;SDS011;6627;50.920;12.050;2023-01-15T07:59:53;2.83;;;2.53;;
13122;SDS011;6627;50.920;12.050;2023-01-15T08:02:20;1.70;;;1.60;;
13122;SDS011;6627;50.920;12.050;2023-01-15T08:04:48;4.83;;;1.73;;
13122;SDS011;6627;50.920;12.050;2023-01-15T08:07:15;2.20;;;1.37;;
13122;SDS011;6627;50.920;12.050;2023-01-15T08:09:44;2.67;;;1.53;;
13122;SDS011;6627;50.920;12.050;2023-01-15T08:12:11;2.70;;;1.80;;
13122;SDS011;6627;50.920;12.050;2023-01-15T08:14:56;0.80;;;0.80;;
13122;SDS011;6627;50.920;12.050;2023-01-15T08:17:39;1.80;;;1.00;;
13122;SDS011;6627;50.920;12.050;2023-01-15T08:20:10;2.50;;;2.30;;
13122;SDS011;6627;50.920;12.050;2023-01-15T08:22:40;1.90;;;1.80;;
13122;SDS011;6627;50.920;12.050;2023-01-15T08:25:10;1.90;;;1.80;;
13122;SDS011;6627;50.920;12.050;2023-01-15T08:27:42;1.60;;;1.50;;
13122;SDS011;6627;50.920;12.050;2023-01-15T08:30:10;1.20;;;1.10;;
13122;SDS011;6627;50.920;12.050;2023-01-15T08:32:40;1.40;;;1.00;;
13122;SDS011;6627;50.920;12.050;2023-01-15T08:35:08;2.07;;;1.57;;
13122;SDS011;6627;50.920;12.050;2023-01-15T08:37:37;1.27;;;0.90;;
13122;SDS011;6627;50.920;12.050;2023-01-15T08:40:05;1.30;;;1.10;;
13122;SDS011;6627;50.920;12.050;2023-01-15T08:42:35;0.60;;;0.60;;
13122;SDS011;6627;50.920;12.050;2023-01-15T08:45:03;0.70;;;0.70;;
13122;SDS011;6627;50.920;12.050;2023-01-15T08:47:31;1.00;;;0.80;;
13122;SDS011;6627;50.920;12.050;2023-01-15T08:49:58;0.60;;;0.60;;
13122;SDS011;6627;50.920;12.050;2023-01-15T08:52:25;0.40;;;0.40;;
13122;SDS011;6627;50.920;12.050;2023-01-15T08:54:53;0.63;;;0.63;;
13122;SDS011;6627;50.920;12.050;2023-01-15T08:57:20;0.67;;;0.63;;
13122;SDS011;6627;50.920;12.050;2023-01-15T08:59:48;1.13;;;0.50;;
13122;SDS011;6627;50.920;12.050;2023-01-15T09:02:16;0.93;;;0.73;;
13122;SDS011;6627;50.920;12.050;2023-01-15T09:04:44;0.87;;;0.83;;
13122;SDS011;6627;50.920;12.050;2023-01-15T09:07:11;1.10;;;0.80;;
13122;SDS011;6627;50.920;12.050;2023-01-15T09:09:38;2.20;;;0.70;;
13122;SDS011;6627;50.920;12.050;2023-01-15T09:12:06;0.70;;;0.50;;
13122;SDS011;6627;50.920;12.050;2023-01-15T09:14:33;0.47;;;0.47;;
13122;SDS011;6627;50.920;12.050;2023-01-15T09:17:01;0.60;;;0.60;;
13122;SDS011;6627;50.920;12.050;2023-01-15T09:19:29;0.50;;;0.50;;
13122;SDS011;6627;50.920;12.050;2023-01-15T09:21:56;0.60;;;0.50;;
13122;SDS011;6627;50.920;12.050;2023-01-15T09:24:23;1.60;;;0.60;;
13122;SDS011;6627;50.920;12.050;2023-01-15T09:26:50;0.80;;;0.70;;
13122;SDS011;6627;50.920;12.050;2023-01-15T09:29:18;0.50;;;0.50;;
13122;SDS011;6627;50.920;12.050;2023-01-15T09:31:45;0.70;;;0.60;;
13122;SDS011;6627;50.920;12.050;2023-01-15T09:34:14;0.57;;;0.57;;
13122;SDS011;6627;50.920;12.050;2023-01-15T09:36:41;0.60;;;0.53;;
13122;SDS011;6627;50.920;12.050;2023-01-15T09:39:10;0.80;;;0.63;;
13122;SDS011;6627;50.920;12.050;2023-01-15T09:41:49;0.80;;;0.80;;
13122;SDS011;6627;50.920;12.050;2023-01-15T09:44:36;0.50;;;0.50;;
13122;SDS011;6627;50.920;12.050;2023-01-15T09:47:17;1.90;;;0.60;;
13122;SDS011;6627;50.920;12.050;2023-01-15T09:49:59;1.13;;;0.80;;
13122;SDS011;6627;50.920;12.050;2023-01-15T09:52:49;2.10;;;1.23;;
13122;SDS011;6627;50.920;12.050;2023-01-15T09:55:53;0.90;;;0.90;;
13122;SDS011;6627;50.920;12.050;2023-01-15T09:58:22;0.73;;;0.70;;
13122;SDS011;6627;50.920;12.050;2023-01-15T10:00:59;1.00;;;0.80;;
13122;SDS011;6627;50.920;12.050;2023-01-15T10:03:28;3.03;;;1.70;;
13122;SDS011;6627;50.920;12.050;2023-01-15T10:06:10;2.90;;;2.27;;
13122;SDS011;6627;50.920;12.050;2023-01-15T10:08:44;3.10;;;1.40;;
13122;SDS011;6627;50.920;12.050;2023-01-15T10:11:27;6.73;;;3.97;;
13122;SDS011;6627;50.920;12.050;2023-01-15T10:17:17;6.83;;;4.27;;
13122;SDS011;6627;50.920;12.050;2023-01-15T10:19:50;3.73;;;2.13;;
13122;SDS011;6627;50.920;12.050;2023-01-15T10:22:23;1.50;;;1.40;;
13122;SDS011;6627;50.920;12.050;2023-01-15T10:25:14;1.13;;;0.90;;
13122;SDS011;6627;50.920;12.050;2023-01-15T10:27:45;0.87;;;0.70;;
13122;SDS011;6627;50.920;12.050;2023-01-15T10:30:20;1.47;;;0.60;;
13122;SDS011;6627;50.920;12.050;2023-01-15T10:32:57;0.93;;;0.80;;
13122;SDS011;6627;50.920;12.050;2023-01-15T10:35:51;1.00;;;0.73;;
13122;SDS011;6627;50.920;12.050;2023-01-15T10:38:26;1.33;;;1.00;;
13122;SDS011;6627;50.920;12.050;2023-01-15T10:41:09;1.90;;;1.07;;
13122;SDS011;6627;50.920;12.050;2023-01-15T10:43:56;1.67;;;0.80;;
13122;SDS011;6627;50.920;12.050;2023-01-15T10:46:35;1.50;;;0.80;;
13122;SDS011;6627;50.920;12.050;2023-01-15T10:49:05;1.23;;;1.13;;
13122;SDS011;6627;50.920;12.050;2023-01-15T10:51:41;1.00;;;0.90;;
13122;SDS011;6627;50.920;12.050;2023-01-15T10:54:15;1.73;;;0.90;;
13122;SDS011;6627;50.920;12.050;2023-01-15T10:56:52;1.20;;;0.60;;
13122;SDS011;6627;50.920;12.050;2023-01-15T10:59:35;0.70;;;0.70;;
13122;SDS011;6627;50.920;12.050;2023-01-15T11:02:18;2.57;;;0.83;;
13122;SDS011;6627;50.920;12.050;2023-01-15T11:04:52;1.33;;;0.50;;
13122;SDS011;6627;50.920;12.050;2023-01-15T11:07:20;0.57;;;0.57;;
13122;SDS011;6627;50.920;12.050;2023-01-15T11:10:03;0.50;;;0.50;;
13122;SDS011;6627;50.920;12.050;2023-01-15T11:12:33;0.77;;;0.60;;
13122;SDS011;6627;50.920;12.050;2023-01-15T11:15:21;0.87;;;0.60;;
13122;SDS011;6627;50.920;12.050;2023-01-15T11:18:13;0.40;;;0.40;;
13122;SDS011;6627;50.920;12.050;2023-01-15T11:21:10;1.20;;;0.93;;
13122;SDS011;6627;50.920;12.050;2023-01-15T11:23:40;0.80;;;0.80;;
13122;SDS011;6627;50.920;12.050;2023-01-15T11:26:09;1.47;;;0.70;;
13122;SDS011;6627;50.920;12.050;2023-01-15T11:28:45;0.87;;;0.87;;
13122;SDS011;6627;50.920;12.050;2023-01-15T11:31:13;1.83;;;1.53;;
13122;SDS011;6627;50.920;12.050;2023-01-15T11:33:42;0.90;;;0.80;;
13122;SDS011;6627;50.920;12.050;2023-01-15T11:36:21;0.60;;;0.60;;
13122;SDS011;6627;50.920;12.050;2023-01-15T11:38:51;0.70;;;0.70;;
13122;SDS011;6627;50.920;12.050;2023-01-15T11:41:21;0.67;;;0.67;;
13122;SDS011;6627;50.920;12.050;2023-01-15T11:44:13;0.73;;;0.50;;
13122;SDS011;6627;50.920;12.050;2023-01-15T11:47:00;2.10;;;0.70;;
13122;SDS011;6627;50.920;12.050;2023-01-15T11:49:50;0.70;;;0.63;;
13122;SDS011;6627;50.920;12.050;2023-01-15T11:52:36;0.33;;;0.33;;
13122;SDS011;6627;50.920;12.050;2023-01-15T11:55:10;0.50;;;0.50;;
13122;SDS011;6627;50.920;12.050;2023-01-15T11:57:42;0.73;;;0.73;;
13122;SDS011;6627;50.920;12.050;2023-01-15T12:00:19;0.60;;;0.60;;
13122;SDS011;6627;50.920;12.050;2023-01-15T12:02:50;0.57;;;0.50;;
13122;SDS011;6627;50.920;12.050;2023-01-15T12:05:26;0.60;;;0.60;;
13122;SDS011;6627;50.920;12.050;2023-01-15T12:07:57;0.63;;;0.60;;
13122;SDS011;6627;50.920;12.050;2023-01-15T12:10:30;0.53;;;0.53;;
13122;SDS011;6627;50.920;12.050;2023-01-15T12:13:27;0.50;;;0.50;;
13122;SDS011;6627;50.920;12.050;2023-01-15T12:16:09;0.67;;;0.67;;
13122;SDS011;6627;50.920;12.050;2023-01-15T12:18:51;0.77;;;0.60;;
13122;SDS011;6627;50.920;12.050;2023-01-15T12:24:40;0.53;;;0.53;;
13122;SDS011;6627;50.920;12.050;2023-01-15T12:27:42;0.60;;;0.60;;
13122;SDS011;6627;50.920;12.050;2023-01-15T12:30:24;0.77;;;0.40;;
13122;SDS011;6627;50.920;12.050;2023-01-15T12:33:10;0.80;;;0.80;;
13122;SDS011;6627;50.920;12.050;2023-01-15T12:36:06;0.63;;;0.57;;
13122;SDS011;6627;50.920;12.050;2023-01-15T12:38:47;0.40;;;0.40;;
13122;SDS011;6627;50.920;12.050;2023-01-15T12:41:20;0.70;;;0.70;;
13122;SDS011;6627;50.920;12.050;2023-01-15T12:44:13;1.00;;;0.63;;
13122;SDS011;6627;50.920;12.050;2023-01-15T12:47:09;0.67;;;0.60;;
13122;SDS011;6627;50.920;12.050;2023-01-15T12:49:42;2.07;;;1.50;;
13122;SDS011;6627;50.920;12.050;2023-01-15T12:52:17;1.07;;;0.60;;
13122;SDS011;6627;50.920;12.050;2023-01-15T12:54:51;0.77;;;0.53;;
13122;SDS011;6627;50.920;12.050;2023-01-15T12:57:30;1.17;;;0.90;;
13122;SDS011;6627;50.920;12.050;2023-01-15T13:00:02;0.50;;;0.50;;
13122;SDS011;6627;50.920;12.050;2023-01-15T13:02:41;0.50;;;0.50;;
13122;SDS011;6627;50.920;12.050;2023-01-15T13:05:26;0.80;;;0.60;;
13122;SDS011;6627;50.920;12.050;2023-01-15T13:08:00;0.50;;;0.50;;
13122;SDS011;6627;50.920;12.050;2023-01-15T13:10:36;0.40;;;0.40;;
13122;SDS011;6627;50.920;12.050;2023-01-15T13:13:14;0.50;;;0.50;;
13122;SDS011;6627;50.920;12.050;2023-01-15T13:15:48;0.50;;;0.50;;
13122;SDS011;6627;50.920;12.050;2023-01-15T13:18:32;0.63;;;0.60;;
13122;SDS011;6627;50.920;12.050;2023-01-15T13:21:13;0.60;;;0.60;;
13122;SDS011;6627;50.920;12.050;2023-01-15T13:23:50;0.50;;;0.50;;
13122;SDS011;6627;50.920;12.050;2023-01-15T13:26:48;1.10;;;0.70;;
13122;SDS011;6627;50.920;12.050;2023-01-15T13:29:38;0.60;;;0.60;;
13122;SDS011;6627;50.920;12.050;2023-01-15T13:32:20;0.50;;;0.50;;
13122;SDS011;6627;50.920;12.050;2023-01-15T13:34:55;0.60;;;0.60;;
13122;SDS011;6627;50.920;12.050;2023-01-15T13:37:32;0.97;;;0.90;;
13122;SDS011;6627;50.920;12.050;2023-01-15T13:40:09;0.50;;;0.50;;
13122;SDS011;6627;50.920;12.050;2023-01-15T13:42:48;0.60;;;0.60;;
13122;SDS011;6627;50.920;12.050;2023-01-15T13:45:22;0.90;;;0.70;;
13122;SDS011;6627;50.920;12.050;2023-01-15T13:48:05;0.87;;;0.73;;
13122;SDS011;6627;50.920;12.050;2023-01-15T13:50:40;0.70;;;0.70;;
13122;SDS011;6627;50.920;12.050;2023-01-15T13:53:19;0.73;;;0.50;;
13122;SDS011;6627;50.920;12.050;2023-01-15T13:55:54;0.70;;;0.60;;
13122;SDS011;6627;50.920;12.050;2023-01-15T13:58:27;1.30;;;0.60;;
13122;SDS011;6627;50.920;12.050;2023-01-15T14:01:01;0.67;;;0.63;;
13122;SDS011;6627;50.920;12.050;2023-01-15T14:03:33;0.70;;;0.70;;
13122;SDS011;6627;50.920;12.050;2023-01-15T14:06:05;1.50;;;1.10;;
13122;SDS011;6627;50.920;12.050;2023-01-15T14:08:37;0.80;;;0.70;;
13122;SDS011;6627;50.920;12.050;2023-01-15T14:14:08;1.00;;;0.60;;
13122;SDS011;6627;50.920;12.050;2023-01-15T14:17:01;1.90;;;0.90;;
13122;SDS011;6627;50.920;12.050;2023-01-15T14:20:09;0.67;;;0.67;;
13122;SDS011;6627;50.920;12.050;2023-01-15T14:23:07;1.23;;;0.97;;
13122;SDS011;6627;50.920;12.050;2023-01-15T14:26:03;2.40;;;0.80;;
13122;SDS011;6627;50.920;12.050;2023-01-15T14:28:52;2.43;;;0.80;;
13122;SDS011;6627;50.920;12.050;2023-01-15T14:31:37;1.40;;;0.73;;
13122;SDS011;6627;50.920;12.050;2023-01-15T14:34:24;1.10;;;0.77;;
13122;SDS011;6627;50.920;12.050;2023-01-15T14:36:55;1.23;;;1.13;;
13122;SDS011;6627;50.920;12.050;2023-01-15T14:39:31;2.10;;;0.90;;
13122;SDS011;6627;50.920;12.050;2023-01-15T14:42:06;0.70;;;0.70;;
13122;SDS011;6627;50.920;12.050;2023-01-15T14:44:59;1.47;;;0.70;;
13122;SDS011;6627;50.920;12.050;2023-01-15T14:47:33;1.17;;;0.67;;
13122;SDS011;6627;50.920;12.050;2023-01-15T14:50:32;0.70;;;0.70;;
13122;SDS011;6627;50.920;12.050;2023-01-15T14:53:23;0.90;;;0.60;;
13122;SDS011;6627;50.920;12.050;2023-01-15T14:56:00;1.10;;;0.93;;
13122;SDS011;6627;50.920;12.050;2023-01-15T14:58:41;1.63;;;1.10;;
13122;SDS011;6627;50.920;12.050;2023-01-15T15:01:17;1.60;;;0.90;;
13122;SDS011;6627;50.920;12.050;2023-01-15T15:03:56;0.80;;;0.60;;
13122;SDS011;6627;50.920;12.050;2023-01-15T15:06:31;1.03;;;0.73;;
13122;SDS011;6627;50.920;12.050;2023-01-15T15:09:04;1.00;;;0.70;;
13122;SDS011;6627;50.920;12.050;2023-01-15T15:11:40;0.70;;;0.70;;
13122;SDS011;6627;50.920;12.050;2023-01-15T15:14:30;1.10;;;0.90;;
13122;SDS011;6627;50.920;12.050;2023-01-15T15:17:04;0.90;;;0.67;;
13122;SDS011;6627;50.920;12.050;2023-01-15T15:19:56;2.10;;;0.53;;
13122;SDS011;6627;50.920;12.050;2023-01-15T15:22:40;0.70;;;0.70;;
13122;SDS011;6627;50.920;12.050;2023-01-15T15:25:16;0.70;;;0.70;;
13122;SDS011;6627;50.920;12.050;2023-01-15T15:27:48;1.30;;;0.70;;
13122;SDS011;6627;50.920;12.050;2023-01-15T15:30:27;0.83;;;0.60;;
13122;SDS011;6627;50.920;12.050;2023-01-15T15:33:02;11.73;;;5.13;;
13122;SDS011;6627;50.920;12.050;2023-01-15T15:35:31;2.27;;;1.60;;
13122;SDS011;6627;50.920;12.050;2023-01-15T15:38:02;3.03;;;2.20;;